sensor_id;sensor_type;location;lat;lon;timestamp;P1;durP1;ratioP1;P2;durP2;ratioP2
23163;SDS011;31429;42.674;23.350;2023-03-13T00:00:23;8.83;;;7.93;;
23163;SDS011;31429;42.674;23.350;2023-03-13T00:01:24;10.50;;;8.13;;
23163;SDS011;31429;42.674;23.350;2023-03-13T00:02:27;9.00;;;8.18;;
23163;SDS011;31429;42.674;23.350;2023-03-13T00:03:27;8.57;;;7.77;;
23163;SDS011;31429;42.674;23.350;2023-03-13T00:04:28;8.73;;;7.93;;
23163;SDS011;31429;42.674;23.350;2023-03-13T00:05:29;9.73;;;7.90;;
23163;SDS011;31429;42.674;23.350;2023-03-13T00:06:30;8.47;;;7.70;;
23163;SDS011;31429;42.674;23.350;2023-03-13T00:07:32;9.13;;;8.32;;
23163;SDS011;31429;42.674;23.350;2023-03-13T00:08:33;8.87;;;8.07;;
23163;SDS011;31429;42.674;23.350;2023-03-13T00:09:34;9.87;;;8.17;;
23163;SDS011;31429;42.674;23.350;2023-03-13T00:10:35;8.87;;;8.00;;
23163;SDS011;31429;42.674;23.350;2023-03-13T00:11:36;8.52;;;7.63;;
23163;SDS011;31429;42.674;23.350;2023-03-13T00:12:37;9.03;;;8.17;;
23163;SDS011;31429;42.674;23.350;2023-03-13T00:13:39;8.77;;;7.97;;
23163;SDS011;31429;42.674;23.350;2023-03-13T00:14:40;10.98;;;8.90;;
23163;SDS011;31429;42.674;23.350;2023-03-13T00:15:40;8.60;;;7.80;;
23163;SDS011;31429;42.674;23.350;2023-03-13T00:16:41;8.53;;;7.73;;
23163;SDS011;31429;42.674;23.350;2023-03-13T00:17:41;9.20;;;8.30;;
23163;SDS011;31429;42.674;23.350;2023-03-13T00:18:45;9.20;;;8.10;;
23163;SDS011;31429;42.674;23.350;2023-03-13T00:19:46;9.15;;;8.25;;
23163;SDS011;31429;42.674;23.350;2023-03-13T00:20:47;9.47;;;8.47;;
23163;SDS011;31429;42.674;23.350;2023-03-13T00:21:49;9.35;;;8.35;;
23163;SDS011;31429;42.674;23.350;2023-03-13T00:22:50;8.80;;;7.97;;
23163;SDS011;31429;42.674;23.350;2023-03-13T00:23:51;9.70;;;8.33;;
23163;SDS011;31429;42.674;23.350;2023-03-13T00:24:51;9.13;;;8.33;;
23163;SDS011;31429;42.674;23.350;2023-03-13T00:25:55;8.47;;;7.37;;
23163;SDS011;31429;42.674;23.350;2023-03-13T00:26:56;8.73;;;7.85;;
23163;SDS011;31429;42.674;23.350;2023-03-13T00:28:02;9.35;;;8.02;;
23163;SDS011;31429;42.674;23.350;2023-03-13T00:29:04;11.53;;;8.47;;
23163;SDS011;31429;42.674;23.350;2023-03-13T00:30:05;9.70;;;8.70;;
23163;SDS011;31429;42.674;23.350;2023-03-13T00:31:07;8.73;;;7.93;;
23163;SDS011;31429;42.674;23.350;2023-03-13T00:32:09;8.75;;;7.90;;
23163;SDS011;31429;42.674;23.350;2023-03-13T00:33:09;8.90;;;8.10;;
23163;SDS011;31429;42.674;23.350;2023-03-13T00:34:10;9.50;;;8.50;;
23163;SDS011;31429;42.674;23.350;2023-03-13T00:35:11;8.93;;;8.03;;
23163;SDS011;31429;42.674;23.350;2023-03-13T00:36:12;8.53;;;7.63;;
23163;SDS011;31429;42.674;23.350;2023-03-13T00:37:14;9.80;;;8.70;;
23163;SDS011;31429;42.674;23.350;2023-03-13T00:38:15;8.30;;;7.50;;
23163;SDS011;31429;42.674;23.350;2023-03-13T00:39:15;8.50;;;7.70;;
23163;SDS011;31429;42.674;23.350;2023-03-13T00:40:16;8.37;;;7.57;;
23163;SDS011;31429;42.674;23.350;2023-03-13T00:41:18;8.45;;;7.65;;
23163;SDS011;31429;42.674;23.350;2023-03-13T00:42:21;9.27;;;8.38;;
23163;SDS011;31429;42.674;23.350;2023-03-13T00:43:21;8.47;;;7.67;;
23163;SDS011;31429;42.674;23.350;2023-03-13T00:44:25;8.80;;;7.88;;
23163;SDS011;31429;42.674;23.350;2023-03-13T00:45:25;9.15;;;7.50;;
23163;SDS011;31429;42.674;23.350;2023-03-13T00:46:26;8.73;;;7.83;;
23163;SDS011;31429;42.674;23.350;2023-03-13T00:47:28;8.23;;;7.43;;
23163;SDS011;31429;42.674;23.350;2023-03-13T00:48:29;8.87;;;8.03;;
23163;SDS011;31429;42.674;23.350;2023-03-13T00:49:30;9.25;;;8.27;;
23163;SDS011;31429;42.674;23.350;2023-03-13T00:50:31;8.00;;;7.20;;
23163;SDS011;31429;42.674;23.350;2023-03-13T00:51:31;10.17;;;7.80;;
23163;SDS011;31429;42.674;23.350;2023-03-13T00:52:32;8.03;;;7.23;;
23163;SDS011;31429;42.674;23.350;2023-03-13T00:53:33;8.70;;;7.87;;
23163;SDS011;31429;42.674;23.350;2023-03-13T00:54:34;9.10;;;7.97;;
23163;SDS011;31429;42.674;23.350;2023-03-13T00:55:34;8.63;;;7.83;;
23163;SDS011;31429;42.674;23.350;2023-03-13T00:56:35;9.23;;;8.17;;
23163;SDS011;31429;42.674;23.350;2023-03-13T00:57:36;8.67;;;7.83;;
23163;SDS011;31429;42.674;23.350;2023-03-13T00:58:38;8.43;;;7.50;;
23163;SDS011;31429;42.674;23.350;2023-03-13T00:59:41;8.25;;;7.45;;
23163;SDS011;31429;42.674;23.350;2023-03-13T01:00:42;8.60;;;7.80;;
23163;SDS011;31429;42.674;23.350;2023-03-13T01:01:42;8.67;;;7.87;;
23163;SDS011;31429;42.674;23.350;2023-03-13T01:02:43;9.00;;;8.10;;
23163;SDS011;31429;42.674;23.350;2023-03-13T01:03:44;9.03;;;7.83;;
23163;SDS011;31429;42.674;23.350;2023-03-13T01:04:47;11.05;;;9.13;;
23163;SDS011;31429;42.674;23.350;2023-03-13T01:05:53;10.60;;;8.30;;
23163;SDS011;31429;42.674;23.350;2023-03-13T01:06:55;9.27;;;8.38;;
23163;SDS011;31429;42.674;23.350;2023-03-13T01:07:56;8.73;;;7.93;;
23163;SDS011;31429;42.674;23.350;2023-03-13T01:08:56;8.73;;;7.93;;
23163;SDS011;31429;42.674;23.350;2023-03-13T01:09:58;9.73;;;8.20;;
23163;SDS011;31429;42.674;23.350;2023-03-13T01:10:59;8.63;;;7.80;;
23163;SDS011;31429;42.674;23.350;2023-03-13T01:12:00;8.98;;;8.07;;
23163;SDS011;31429;42.674;23.350;2023-03-13T01:13:00;8.60;;;7.80;;
23163;SDS011;31429;42.674;23.350;2023-03-13T01:14:04;9.25;;;8.35;;
23163;SDS011;31429;42.674;23.350;2023-03-13T01:15:08;8.68;;;7.78;;
23163;SDS011;31429;42.674;23.350;2023-03-13T01:16:10;9.38;;;8.48;;
23163;SDS011;31429;42.674;23.350;2023-03-13T01:17:13;8.70;;;7.90;;
23163;SDS011;31429;42.674;23.350;2023-03-13T01:18:14;9.60;;;8.60;;
23163;SDS011;31429;42.674;23.350;2023-03-13T01:19:14;9.57;;;8.47;;
23163;SDS011;31429;42.674;23.350;2023-03-13T01:20:16;9.35;;;8.35;;
23163;SDS011;31429;42.674;23.350;2023-03-13T01:21:17;9.30;;;8.40;;
23163;SDS011;31429;42.674;23.350;2023-03-13T01:22:19;8.25;;;7.55;;
23163;SDS011;31429;42.674;23.350;2023-03-13T01:23:19;9.57;;;8.53;;
23163;SDS011;31429;42.674;23.350;2023-03-13T01:24:20;9.50;;;8.50;;
23163;SDS011;31429;42.674;23.350;2023-03-13T01:25:21;9.70;;;8.68;;
23163;SDS011;31429;42.674;23.350;2023-03-13T01:26:22;8.97;;;8.13;;
23163;SDS011;31429;42.674;23.350;2023-03-13T01:27:23;8.52;;;7.70;;
23163;SDS011;31429;42.674;23.350;2023-03-13T01:28:24;8.80;;;8.00;;
23163;SDS011;31429;42.674;23.350;2023-03-13T01:29:25;8.90;;;8.00;;
23163;SDS011;31429;42.674;23.350;2023-03-13T01:30:28;9.20;;;7.87;;
23163;SDS011;31429;42.674;23.350;2023-03-13T01:31:29;9.55;;;8.07;;
23163;SDS011;31429;42.674;23.350;2023-03-13T01:32:31;9.20;;;8.32;;
23163;SDS011;31429;42.674;23.350;2023-03-13T01:33:32;9.45;;;8.30;;
23163;SDS011;31429;42.674;23.350;2023-03-13T01:34:33;10.67;;;7.70;;
23163;SDS011;31429;42.674;23.350;2023-03-13T01:35:34;9.50;;;8.48;;
23163;SDS011;31429;42.674;23.350;2023-03-13T01:36:35;9.30;;;8.40;;
23163;SDS011;31429;42.674;23.350;2023-03-13T01:37:36;9.38;;;8.38;;
23163;SDS011;31429;42.674;23.350;2023-03-13T01:38:37;10.00;;;8.53;;
23163;SDS011;31429;42.674;23.350;2023-03-13T01:39:38;9.18;;;8.30;;
23163;SDS011;31429;42.674;23.350;2023-03-13T01:40:40;9.43;;;8.60;;
23163;SDS011;31429;42.674;23.350;2023-03-13T01:41:41;9.00;;;8.10;;
23163;SDS011;31429;42.674;23.350;2023-03-13T01:42:48;9.10;;;8.23;;
23163;SDS011;31429;42.674;23.350;2023-03-13T01:43:53;8.57;;;7.70;;
23163;SDS011;31429;42.674;23.350;2023-03-13T01:44:57;8.63;;;7.82;;
23163;SDS011;31429;42.674;23.350;2023-03-13T01:46:00;8.47;;;7.67;;
23163;SDS011;31429;42.674;23.350;2023-03-13T01:47:03;8.73;;;7.82;;
23163;SDS011;31429;42.674;23.350;2023-03-13T01:48:04;8.95;;;8.05;;
23163;SDS011;31429;42.674;23.350;2023-03-13T01:49:05;10.27;;;8.77;;
23163;SDS011;31429;42.674;23.350;2023-03-13T01:50:09;9.10;;;8.30;;
23163;SDS011;31429;42.674;23.350;2023-03-13T01:51:10;9.20;;;7.90;;
23163;SDS011;31429;42.674;23.350;2023-03-13T01:52:14;9.15;;;7.60;;
23163;SDS011;31429;42.674;23.350;2023-03-13T01:53:18;9.63;;;8.73;;
23163;SDS011;31429;42.674;23.350;2023-03-13T01:54:20;8.87;;;7.97;;
23163;SDS011;31429;42.674;23.350;2023-03-13T01:55:23;8.32;;;7.53;;
23163;SDS011;31429;42.674;23.350;2023-03-13T01:56:25;8.73;;;7.87;;
23163;SDS011;31429;42.674;23.350;2023-03-13T01:57:32;11.32;;;9.75;;
23163;SDS011;31429;42.674;23.350;2023-03-13T01:58:35;10.68;;;8.10;;
23163;SDS011;31429;42.674;23.350;2023-03-13T01:59:38;9.95;;;8.23;;
23163;SDS011;31429;42.674;23.350;2023-03-13T02:00:43;12.57;;;10.88;;
23163;SDS011;31429;42.674;23.350;2023-03-13T02:01:46;13.35;;;10.75;;
23163;SDS011;31429;42.674;23.350;2023-03-13T02:02:50;19.35;;;14.52;;
23163;SDS011;31429;42.674;23.350;2023-03-13T02:03:59;10.85;;;7.95;;
23163;SDS011;31429;42.674;23.350;2023-03-13T02:05:00;9.05;;;8.23;;
23163;SDS011;31429;42.674;23.350;2023-03-13T02:06:03;12.18;;;9.98;;
23163;SDS011;31429;42.674;23.350;2023-03-13T02:07:07;9.23;;;8.32;;
23163;SDS011;31429;42.674;23.350;2023-03-13T02:08:14;9.85;;;8.85;;
23163;SDS011;31429;42.674;23.350;2023-03-13T02:09:19;15.30;;;12.27;;
23163;SDS011;31429;42.674;23.350;2023-03-13T02:10:23;12.93;;;9.90;;
23163;SDS011;31429;42.674;23.350;2023-03-13T02:11:31;11.00;;;9.48;;
23163;SDS011;31429;42.674;23.350;2023-03-13T02:12:39;15.18;;;12.63;;
23163;SDS011;31429;42.674;23.350;2023-03-13T02:13:40;18.80;;;14.88;;
23163;SDS011;31429;42.674;23.350;2023-03-13T02:14:42;17.45;;;14.10;;
23163;SDS011;31429;42.674;23.350;2023-03-13T02:15:45;18.08;;;13.15;;
23163;SDS011;31429;42.674;23.350;2023-03-13T02:16:48;20.70;;;14.63;;
23163;SDS011;31429;42.674;23.350;2023-03-13T02:17:51;15.57;;;12.63;;
23163;SDS011;31429;42.674;23.350;2023-03-13T02:18:53;9.75;;;8.68;;
23163;SDS011;31429;42.674;23.350;2023-03-13T02:19:54;15.70;;;12.30;;
23163;SDS011;31429;42.674;23.350;2023-03-13T02:20:55;9.07;;;8.27;;
23163;SDS011;31429;42.674;23.350;2023-03-13T02:22:06;11.45;;;10.25;;
23163;SDS011;31429;42.674;23.350;2023-03-13T02:23:17;11.07;;;9.82;;
23163;SDS011;31429;42.674;23.350;2023-03-13T02:24:26;13.35;;;11.20;;
23163;SDS011;31429;42.674;23.350;2023-03-13T02:25:38;15.23;;;12.02;;
23163;SDS011;31429;42.674;23.350;2023-03-13T02:26:42;11.75;;;9.90;;
23163;SDS011;31429;42.674;23.350;2023-03-13T02:27:42;13.07;;;11.17;;
23163;SDS011;31429;42.674;23.350;2023-03-13T02:28:45;12.57;;;11.23;;
23163;SDS011;31429;42.674;23.350;2023-03-13T02:29:45;14.87;;;11.40;;
23163;SDS011;31429;42.674;23.350;2023-03-13T02:30:47;13.88;;;10.57;;
23163;SDS011;31429;42.674;23.350;2023-03-13T02:31:50;13.30;;;11.90;;
23163;SDS011;31429;42.674;23.350;2023-03-13T02:32:51;11.70;;;10.50;;
23163;SDS011;31429;42.674;23.350;2023-03-13T02:33:51;11.73;;;10.27;;
23163;SDS011;31429;42.674;23.350;2023-03-13T02:34:55;13.25;;;11.32;;
23163;SDS011;31429;42.674;23.350;2023-03-13T02:36:01;14.02;;;10.88;;
23163;SDS011;31429;42.674;23.350;2023-03-13T02:37:03;12.88;;;10.50;;
23163;SDS011;31429;42.674;23.350;2023-03-13T02:38:06;13.80;;;10.10;;
23163;SDS011;31429;42.674;23.350;2023-03-13T02:39:09;10.18;;;8.38;;
23163;SDS011;31429;42.674;23.350;2023-03-13T02:40:13;15.52;;;10.65;;
23163;SDS011;31429;42.674;23.350;2023-03-13T02:41:17;12.38;;;11.07;;
23163;SDS011;31429;42.674;23.350;2023-03-13T02:42:21;13.65;;;10.77;;
23163;SDS011;31429;42.674;23.350;2023-03-13T02:43:23;11.20;;;10.10;;
23163;SDS011;31429;42.674;23.350;2023-03-13T02:44:29;11.90;;;9.68;;
23163;SDS011;31429;42.674;23.350;2023-03-13T02:45:30;10.37;;;9.33;;
23163;SDS011;31429;42.674;23.350;2023-03-13T02:46:35;9.67;;;8.77;;
23163;SDS011;31429;42.674;23.350;2023-03-13T02:47:44;10.80;;;9.50;;
23163;SDS011;31429;42.674;23.350;2023-03-13T02:48:45;11.63;;;10.43;;
23163;SDS011;31429;42.674;23.350;2023-03-13T02:49:47;14.65;;;11.30;;
23163;SDS011;31429;42.674;23.350;2023-03-13T02:50:50;17.73;;;12.68;;
23163;SDS011;31429;42.674;23.350;2023-03-13T02:51:50;13.53;;;11.50;;
23163;SDS011;31429;42.674;23.350;2023-03-13T02:52:53;15.32;;;13.73;;
23163;SDS011;31429;42.674;23.350;2023-03-13T02:53:57;17.33;;;13.98;;
23163;SDS011;31429;42.674;23.350;2023-03-13T02:55:01;16.15;;;13.88;;
23163;SDS011;31429;42.674;23.350;2023-03-13T02:56:07;14.88;;;12.90;;
23163;SDS011;31429;42.674;23.350;2023-03-13T02:57:09;15.00;;;13.40;;
23163;SDS011;31429;42.674;23.350;2023-03-13T02:58:09;17.08;;;13.60;;
23163;SDS011;31429;42.674;23.350;2023-03-13T02:59:10;16.20;;;13.73;;
23163;SDS011;31429;42.674;23.350;2023-03-13T03:00:11;16.00;;;13.87;;
23163;SDS011;31429;42.674;23.350;2023-03-13T03:01:12;15.85;;;13.68;;
23163;SDS011;31429;42.674;23.350;2023-03-13T03:02:13;13.80;;;12.33;;
23163;SDS011;31429;42.674;23.350;2023-03-13T03:03:13;16.23;;;14.53;;
23163;SDS011;31429;42.674;23.350;2023-03-13T03:04:14;19.83;;;16.37;;
23163;SDS011;31429;42.674;23.350;2023-03-13T03:05:14;20.37;;;17.07;;
23163;SDS011;31429;42.674;23.350;2023-03-13T03:06:15;19.57;;;16.83;;
23163;SDS011;31429;42.674;23.350;2023-03-13T03:07:16;20.80;;;16.77;;
23163;SDS011;31429;42.674;23.350;2023-03-13T03:08:17;21.13;;;18.00;;
23163;SDS011;31429;42.674;23.350;2023-03-13T03:09:17;19.97;;;15.93;;
23163;SDS011;31429;42.674;23.350;2023-03-13T03:10:19;22.10;;;17.35;;
23163;SDS011;31429;42.674;23.350;2023-03-13T03:11:19;20.17;;;14.90;;
23163;SDS011;31429;42.674;23.350;2023-03-13T03:12:21;17.97;;;14.83;;
23163;SDS011;31429;42.674;23.350;2023-03-13T03:13:22;17.52;;;14.27;;
23163;SDS011;31429;42.674;23.350;2023-03-13T03:14:23;16.90;;;13.50;;
23163;SDS011;31429;42.674;23.350;2023-03-13T03:15:24;15.40;;;13.77;;
23163;SDS011;31429;42.674;23.350;2023-03-13T03:16:24;13.83;;;12.43;;
23163;SDS011;31429;42.674;23.350;2023-03-13T03:17:25;16.00;;;13.90;;
23163;SDS011;31429;42.674;23.350;2023-03-13T03:18:25;15.70;;;12.37;;
23163;SDS011;31429;42.674;23.350;2023-03-13T03:19:26;15.07;;;13.23;;
23163;SDS011;31429;42.674;23.350;2023-03-13T03:20:27;18.37;;;15.27;;
23163;SDS011;31429;42.674;23.350;2023-03-13T03:21:27;17.27;;;14.90;;
23163;SDS011;31429;42.674;23.350;2023-03-13T03:22:28;18.00;;;14.70;;
23163;SDS011;31429;42.674;23.350;2023-03-13T03:23:28;19.93;;;17.23;;
23163;SDS011;31429;42.674;23.350;2023-03-13T03:24:29;17.80;;;15.27;;
23163;SDS011;31429;42.674;23.350;2023-03-13T03:25:30;22.73;;;19.00;;
23163;SDS011;31429;42.674;23.350;2023-03-13T03:26:30;21.00;;;17.73;;
23163;SDS011;31429;42.674;23.350;2023-03-13T03:27:33;22.60;;;19.00;;
23163;SDS011;31429;42.674;23.350;2023-03-13T03:28:33;19.88;;;17.17;;
23163;SDS011;31429;42.674;23.350;2023-03-13T03:29:34;21.23;;;17.97;;
23163;SDS011;31429;42.674;23.350;2023-03-13T03:30:35;20.63;;;17.13;;
23163;SDS011;31429;42.674;23.350;2023-03-13T03:31:35;20.17;;;17.43;;
23163;SDS011;31429;42.674;23.350;2023-03-13T03:32:36;23.43;;;17.87;;
23163;SDS011;31429;42.674;23.350;2023-03-13T03:33:37;23.20;;;19.37;;
23163;SDS011;31429;42.674;23.350;2023-03-13T03:34:39;25.20;;;18.48;;
23163;SDS011;31429;42.674;23.350;2023-03-13T03:35:39;23.57;;;18.70;;
23163;SDS011;31429;42.674;23.350;2023-03-13T03:36:40;20.47;;;17.70;;
23163;SDS011;31429;42.674;23.350;2023-03-13T03:37:41;24.95;;;19.15;;
23163;SDS011;31429;42.674;23.350;2023-03-13T03:38:42;25.87;;;19.30;;
23163;SDS011;31429;42.674;23.350;2023-03-13T03:39:43;19.25;;;16.98;;
23163;SDS011;31429;42.674;23.350;2023-03-13T03:40:44;24.60;;;19.43;;
23163;SDS011;31429;42.674;23.350;2023-03-13T03:41:45;23.00;;;18.97;;
23163;SDS011;31429;42.674;23.350;2023-03-13T03:42:47;23.33;;;18.97;;
23163;SDS011;31429;42.674;23.350;2023-03-13T03:43:47;21.38;;;18.67;;
23163;SDS011;31429;42.674;23.350;2023-03-13T03:44:48;24.57;;;19.27;;
23163;SDS011;31429;42.674;23.350;2023-03-13T03:45:49;23.37;;;18.60;;
23163;SDS011;31429;42.674;23.350;2023-03-13T03:46:49;25.77;;;19.40;;
23163;SDS011;31429;42.674;23.350;2023-03-13T03:47:50;23.83;;;18.50;;
23163;SDS011;31429;42.674;23.350;2023-03-13T03:48:51;22.57;;;18.17;;
23163;SDS011;31429;42.674;23.350;2023-03-13T03:49:51;21.50;;;18.10;;
23163;SDS011;31429;42.674;23.350;2023-03-13T03:50:52;21.47;;;18.93;;
23163;SDS011;31429;42.674;23.350;2023-03-13T03:51:52;23.97;;;19.70;;
23163;SDS011;31429;42.674;23.350;2023-03-13T03:52:53;21.03;;;18.47;;
23163;SDS011;31429;42.674;23.350;2023-03-13T03:53:54;23.40;;;19.37;;
23163;SDS011;31429;42.674;23.350;2023-03-13T03:54:54;25.33;;;20.87;;
23163;SDS011;31429;42.674;23.350;2023-03-13T03:55:55;25.67;;;20.93;;
23163;SDS011;31429;42.674;23.350;2023-03-13T03:56:56;22.47;;;18.93;;
23163;SDS011;31429;42.674;23.350;2023-03-13T03:57:58;20.13;;;17.77;;
23163;SDS011;31429;42.674;23.350;2023-03-13T03:58:58;22.25;;;18.75;;
23163;SDS011;31429;42.674;23.350;2023-03-13T03:59:59;22.27;;;18.50;;
23163;SDS011;31429;42.674;23.350;2023-03-13T04:00:59;22.03;;;17.80;;
23163;SDS011;31429;42.674;23.350;2023-03-13T04:02:00;21.20;;;18.77;;
23163;SDS011;31429;42.674;23.350;2023-03-13T04:03:01;22.97;;;18.33;;
23163;SDS011;31429;42.674;23.350;2023-03-13T04:04:01;47.17;;;34.83;;
23163;SDS011;31429;42.674;23.350;2023-03-13T04:05:02;23.90;;;19.70;;
23163;SDS011;31429;42.674;23.350;2023-03-13T04:06:04;20.77;;;17.33;;
23163;SDS011;31429;42.674;23.350;2023-03-13T04:07:06;35.75;;;27.55;;
23163;SDS011;31429;42.674;23.350;2023-03-13T04:08:06;21.90;;;17.70;;
23163;SDS011;31429;42.674;23.350;2023-03-13T04:09:07;19.70;;;16.90;;
23163;SDS011;31429;42.674;23.350;2023-03-13T04:10:08;22.30;;;18.37;;
23163;SDS011;31429;42.674;23.350;2023-03-13T04:11:10;34.53;;;24.15;;
23163;SDS011;31429;42.674;23.350;2023-03-13T04:12:10;32.13;;;23.57;;
23163;SDS011;31429;42.674;23.350;2023-03-13T04:13:12;26.50;;;21.03;;
23163;SDS011;31429;42.674;23.350;2023-03-13T04:14:13;54.92;;;36.92;;
23163;SDS011;31429;42.674;23.350;2023-03-13T04:15:14;73.37;;;47.37;;
23163;SDS011;31429;42.674;23.350;2023-03-13T04:16:15;41.73;;;27.73;;
23163;SDS011;31429;42.674;23.350;2023-03-13T04:17:15;36.47;;;25.67;;
23163;SDS011;31429;42.674;23.350;2023-03-13T04:18:16;148.97;;;91.77;;
23163;SDS011;31429;42.674;23.350;2023-03-13T04:19:17;204.73;;;126.30;;
23163;SDS011;31429;42.674;23.350;2023-03-13T04:20:17;94.27;;;61.73;;
23163;SDS011;31429;42.674;23.350;2023-03-13T04:21:18;143.97;;;88.67;;
23163;SDS011;31429;42.674;23.350;2023-03-13T04:22:19;126.90;;;80.30;;
23163;SDS011;31429;42.674;23.350;2023-03-13T04:23:19;33.23;;;24.13;;
23163;SDS011;31429;42.674;23.350;2023-03-13T04:24:20;24.77;;;18.83;;
23163;SDS011;31429;42.674;23.350;2023-03-13T04:25:20;19.27;;;14.83;;
23163;SDS011;31429;42.674;23.350;2023-03-13T04:26:21;23.13;;;17.80;;
23163;SDS011;31429;42.674;23.350;2023-03-13T04:27:22;24.47;;;16.27;;
23163;SDS011;31429;42.674;23.350;2023-03-13T04:28:24;19.20;;;14.97;;
23163;SDS011;31429;42.674;23.350;2023-03-13T04:29:24;20.63;;;15.50;;
23163;SDS011;31429;42.674;23.350;2023-03-13T04:30:25;22.03;;;15.70;;
23163;SDS011;31429;42.674;23.350;2023-03-13T04:31:26;15.90;;;14.10;;
23163;SDS011;31429;42.674;23.350;2023-03-13T04:32:27;17.03;;;14.97;;
23163;SDS011;31429;42.674;23.350;2023-03-13T04:33:27;25.67;;;19.07;;
23163;SDS011;31429;42.674;23.350;2023-03-13T04:34:28;17.10;;;15.00;;
23163;SDS011;31429;42.674;23.350;2023-03-13T04:35:29;17.77;;;14.93;;
23163;SDS011;31429;42.674;23.350;2023-03-13T04:36:31;17.05;;;14.38;;
23163;SDS011;31429;42.674;23.350;2023-03-13T04:37:31;25.83;;;17.80;;
23163;SDS011;31429;42.674;23.350;2023-03-13T04:38:32;22.33;;;18.47;;
23163;SDS011;31429;42.674;23.350;2023-03-13T04:39:33;18.37;;;15.10;;
23163;SDS011;31429;42.674;23.350;2023-03-13T04:40:33;16.73;;;14.93;;
23163;SDS011;31429;42.674;23.350;2023-03-13T04:41:34;20.47;;;15.37;;
23163;SDS011;31429;42.674;23.350;2023-03-13T04:42:34;17.60;;;14.23;;
23163;SDS011;31429;42.674;23.350;2023-03-13T04:43:36;18.20;;;14.73;;
23163;SDS011;31429;42.674;23.350;2023-03-13T04:44:37;17.35;;;15.55;;
23163;SDS011;31429;42.674;23.350;2023-03-13T04:45:38;17.50;;;15.13;;
23163;SDS011;31429;42.674;23.350;2023-03-13T04:46:38;15.97;;;14.30;;
23163;SDS011;31429;42.674;23.350;2023-03-13T04:47:39;17.20;;;15.00;;
23163;SDS011;31429;42.674;23.350;2023-03-13T04:48:40;26.83;;;18.90;;
23163;SDS011;31429;42.674;23.350;2023-03-13T04:49:40;27.37;;;21.23;;
23163;SDS011;31429;42.674;23.350;2023-03-13T04:50:41;28.00;;;20.60;;
23163;SDS011;31429;42.674;23.350;2023-03-13T04:51:42;17.30;;;15.53;;
23163;SDS011;31429;42.674;23.350;2023-03-13T04:52:43;17.83;;;14.68;;
23163;SDS011;31429;42.674;23.350;2023-03-13T04:53:44;18.17;;;14.73;;
23163;SDS011;31429;42.674;23.350;2023-03-13T04:54:44;17.13;;;14.77;;
23163;SDS011;31429;42.674;23.350;2023-03-13T04:55:45;18.83;;;14.67;;
23163;SDS011;31429;42.674;23.350;2023-03-13T04:56:47;20.42;;;15.90;;
23163;SDS011;31429;42.674;23.350;2023-03-13T04:57:48;23.53;;;16.93;;
23163;SDS011;31429;42.674;23.350;2023-03-13T04:58:50;19.60;;;16.03;;
23163;SDS011;31429;42.674;23.350;2023-03-13T04:59:51;20.58;;;15.55;;
23163;SDS011;31429;42.674;23.350;2023-03-13T05:00:51;18.17;;;16.20;;
23163;SDS011;31429;42.674;23.350;2023-03-13T05:01:52;19.73;;;16.10;;
23163;SDS011;31429;42.674;23.350;2023-03-13T05:02:53;20.70;;;16.07;;
23163;SDS011;31429;42.674;23.350;2023-03-13T05:03:53;22.80;;;16.73;;
23163;SDS011;31429;42.674;23.350;2023-03-13T05:04:54;20.97;;;17.43;;
23163;SDS011;31429;42.674;23.350;2023-03-13T05:05:54;20.47;;;15.67;;
23163;SDS011;31429;42.674;23.350;2023-03-13T05:06:55;19.50;;;15.33;;
23163;SDS011;31429;42.674;23.350;2023-03-13T05:07:56;21.73;;;17.10;;
23163;SDS011;31429;42.674;23.350;2023-03-13T05:08:56;22.50;;;17.70;;
23163;SDS011;31429;42.674;23.350;2023-03-13T05:09:57;25.20;;;20.53;;
23163;SDS011;31429;42.674;23.350;2023-03-13T05:10:57;30.17;;;20.00;;
23163;SDS011;31429;42.674;23.350;2023-03-13T05:11:58;21.03;;;17.53;;
23163;SDS011;31429;42.674;23.350;2023-03-13T05:12:59;26.27;;;19.13;;
23163;SDS011;31429;42.674;23.350;2023-03-13T05:14:01;19.63;;;16.87;;
23163;SDS011;31429;42.674;23.350;2023-03-13T05:15:01;18.42;;;14.88;;
23163;SDS011;31429;42.674;23.350;2023-03-13T05:16:02;16.57;;;14.73;;
23163;SDS011;31429;42.674;23.350;2023-03-13T05:17:03;20.17;;;16.85;;
23163;SDS011;31429;42.674;23.350;2023-03-13T05:18:04;23.00;;;17.57;;
23163;SDS011;31429;42.674;23.350;2023-03-13T05:19:04;17.07;;;15.27;;
23163;SDS011;31429;42.674;23.350;2023-03-13T05:20:06;19.50;;;17.33;;
23163;SDS011;31429;42.674;23.350;2023-03-13T05:21:10;20.45;;;17.58;;
23163;SDS011;31429;42.674;23.350;2023-03-13T05:22:10;21.80;;;17.23;;
23163;SDS011;31429;42.674;23.350;2023-03-13T05:23:11;20.63;;;15.43;;
23163;SDS011;31429;42.674;23.350;2023-03-13T05:24:12;19.73;;;16.27;;
23163;SDS011;31429;42.674;23.350;2023-03-13T05:25:12;20.67;;;15.57;;
23163;SDS011;31429;42.674;23.350;2023-03-13T05:26:13;23.40;;;15.67;;
23163;SDS011;31429;42.674;23.350;2023-03-13T05:27:14;16.70;;;14.23;;
23163;SDS011;31429;42.674;23.350;2023-03-13T05:28:14;20.30;;;14.93;;
23163;SDS011;31429;42.674;23.350;2023-03-13T05:29:16;18.33;;;14.87;;
23163;SDS011;31429;42.674;23.350;2023-03-13T05:30:17;19.38;;;15.63;;
23163;SDS011;31429;42.674;23.350;2023-03-13T05:31:18;17.25;;;14.43;;
23163;SDS011;31429;42.674;23.350;2023-03-13T05:32:19;16.67;;;13.53;;
23163;SDS011;31429;42.674;23.350;2023-03-13T05:33:19;15.10;;;13.50;;
23163;SDS011;31429;42.674;23.350;2023-03-13T05:34:20;14.40;;;12.43;;
23163;SDS011;31429;42.674;23.350;2023-03-13T05:35:21;19.03;;;14.10;;
23163;SDS011;31429;42.674;23.350;2023-03-13T05:36:22;20.17;;;14.55;;
23163;SDS011;31429;42.674;23.350;2023-03-13T05:37:22;19.53;;;14.03;;
23163;SDS011;31429;42.674;23.350;2023-03-13T05:38:24;15.93;;;12.87;;
23163;SDS011;31429;42.674;23.350;2023-03-13T05:39:24;15.55;;;13.60;;
23163;SDS011;31429;42.674;23.350;2023-03-13T05:40:25;21.53;;;13.47;;
23163;SDS011;31429;42.674;23.350;2023-03-13T05:41:26;21.00;;;14.03;;
23163;SDS011;31429;42.674;23.350;2023-03-13T05:42:26;22.20;;;14.57;;
23163;SDS011;31429;42.674;23.350;2023-03-13T05:43:27;23.67;;;16.30;;
23163;SDS011;31429;42.674;23.350;2023-03-13T05:44:29;19.10;;;15.50;;
23163;SDS011;31429;42.674;23.350;2023-03-13T05:45:30;20.13;;;15.40;;
23163;SDS011;31429;42.674;23.350;2023-03-13T05:46:30;21.70;;;15.40;;
23163;SDS011;31429;42.674;23.350;2023-03-13T05:47:31;21.27;;;15.63;;
23163;SDS011;31429;42.674;23.350;2023-03-13T05:48:32;19.63;;;15.33;;
23163;SDS011;31429;42.674;23.350;2023-03-13T05:49:32;21.77;;;15.73;;
23163;SDS011;31429;42.674;23.350;2023-03-13T05:50:33;22.43;;;15.40;;
23163;SDS011;31429;42.674;23.350;2023-03-13T05:51:33;22.73;;;16.77;;
23163;SDS011;31429;42.674;23.350;2023-03-13T05:52:34;25.27;;;17.83;;
23163;SDS011;31429;42.674;23.350;2023-03-13T05:53:35;27.53;;;16.27;;
23163;SDS011;31429;42.674;23.350;2023-03-13T05:54:35;21.87;;;15.73;;
23163;SDS011;31429;42.674;23.350;2023-03-13T05:55:36;17.50;;;15.13;;
23163;SDS011;31429;42.674;23.350;2023-03-13T05:56:37;18.77;;;14.87;;
23163;SDS011;31429;42.674;23.350;2023-03-13T05:57:37;18.40;;;15.73;;
23163;SDS011;31429;42.674;23.350;2023-03-13T05:58:38;16.77;;;14.18;;